Terminal Aerodrome Forecast
Issued by NWS

Home | Current Version | Previous Version | Text Only | Print | Product List | Glossary On
Versions: 1 2 3 4 5 6 7 8 9 10 11 12 13 14 15 16 17 18 19 20 21 22 23 24 25 26 27 28 29 30 31 32 33 34 35 36
000
FTUS41 KBOX 161726
TAFHYA
TAF
KHYA 161726Z 1618/1718 20007KT P6SM BKN050
     FM162300 21004KT P6SM SCT050
     FM170100 VRB04KT P6SM SCT035
     FM171300 01005KT P6SM FEW025=

USA.gov is the U.S. government's official web portal to all federal, state and local government web resources and services.